createdAt,value
2019-02-08T00:01:09.166Z,7.13
2019-02-08T00:04:12.596Z,6.83
2019-02-08T00:07:16.049Z,6.37
2019-02-08T00:10:20.743Z,7.77
2019-02-08T00:13:24.158Z,7.37
2019-02-08T00:16:27.673Z,6.60
2019-02-08T00:19:31.085Z,7.60
2019-02-08T00:22:34.537Z,6.87
2019-02-08T00:25:46.865Z,6.93
2019-02-08T00:28:50.304Z,6.80
2019-02-08T00:31:53.757Z,7.07
2019-02-08T00:34:57.172Z,7.23
2019-02-08T00:38:00.605Z,7.03
2019-02-08T00:41:04.387Z,7.30
2019-02-08T00:44:07.829Z,7.43
2019-02-08T00:47:11.248Z,6.50
2019-02-08T00:50:23.217Z,7.37
2019-02-08T00:53:33.245Z,7.20
2019-02-08T00:56:31.885Z,7.00
2019-02-08T00:59:35.313Z,7.00
2019-02-08T01:02:39.369Z,7.07
2019-02-08T01:05:42.821Z,6.80
2019-02-08T01:08:46.235Z,5.97
2019-02-08T01:11:49.672Z,5.63
2019-02-08T01:14:53.089Z,5.93
2019-02-08T01:17:56.712Z,6.20
2019-02-08T01:21:00.126Z,6.40
2019-02-08T01:24:04.150Z,6.27
2019-02-08T01:27:07.561Z,6.30
2019-02-08T01:30:14.257Z,5.63
2019-02-08T01:33:17.683Z,6.20
2019-02-08T01:36:21.122Z,6.07
2019-02-08T01:39:24.569Z,5.73
2019-02-08T01:42:28.010Z,5.93
2019-02-08T01:45:32.964Z,5.60
2019-02-08T01:48:36.419Z,5.17
2019-02-08T01:51:39.828Z,4.83
2019-02-08T01:54:43.257Z,5.27
2019-02-08T01:57:48.222Z,5.23
2019-02-08T02:00:51.633Z,5.63
2019-02-08T02:03:55.073Z,5.57
2019-02-08T02:06:58.500Z,5.60
2019-02-08T02:10:01.936Z,5.63
2019-02-08T02:13:06.491Z,6.07
2019-02-08T02:16:09.935Z,6.07
2019-02-08T02:19:13.374Z,6.10
2019-02-08T02:22:16.790Z,5.10
2019-02-08T02:25:20.890Z,6.37
2019-02-08T02:28:24.322Z,6.27
2019-02-08T02:31:27.800Z,6.00
2019-02-08T02:34:31.203Z,5.50
2019-02-08T02:37:34.649Z,5.70
2019-02-08T02:40:38.630Z,5.87
2019-02-08T02:43:42.096Z,5.63
2019-02-08T02:46:45.533Z,5.30
2019-02-08T02:49:48.999Z,5.90
2019-02-08T02:52:52.464Z,4.93
2019-02-08T02:55:55.898Z,5.00
2019-02-08T02:58:59.332Z,5.10
2019-02-08T03:02:02.772Z,5.27
2019-02-08T03:05:06.866Z,4.83
2019-02-08T03:08:12.446Z,4.57
2019-02-08T03:11:15.904Z,5.03
2019-02-08T03:14:19.416Z,4.87
2019-02-08T03:17:22.820Z,5.03
2019-02-08T03:20:26.298Z,5.40
2019-02-08T03:23:29.724Z,4.13
2019-02-08T03:26:33.187Z,4.20
2019-02-08T03:29:36.592Z,4.33
2019-02-08T03:32:40.053Z,3.80
2019-02-08T03:35:43.479Z,4.47
2019-02-08T03:38:46.922Z,4.00
2019-02-08T03:41:50.380Z,4.03
2019-02-08T03:44:53.813Z,3.97
2019-02-08T03:47:57.239Z,4.70
2019-02-08T03:51:00.691Z,3.40
2019-02-08T03:54:04.429Z,3.90
2019-02-08T03:57:07.887Z,3.87
2019-02-08T04:00:14.620Z,4.17
2019-02-08T04:03:18.083Z,3.70
2019-02-08T04:06:21.496Z,4.67
2019-02-08T04:09:24.961Z,3.63
2019-02-08T04:12:28.381Z,4.60
2019-02-08T04:15:31.858Z,4.37
2019-02-08T04:18:35.292Z,4.20
2019-02-08T04:21:38.725Z,4.37
2019-02-08T04:24:42.169Z,3.93
2019-02-08T04:27:45.756Z,3.87
2019-02-08T04:30:49.189Z,3.67
2019-02-08T04:33:52.653Z,3.97
2019-02-08T04:36:56.086Z,3.87
2019-02-08T04:39:59.548Z,3.87
2019-02-08T04:43:02.997Z,3.83
2019-02-08T04:46:06.405Z,4.40
2019-02-08T04:49:09.858Z,4.23
2019-02-08T04:52:13.269Z,4.63
2019-02-08T04:55:17.076Z,4.23
2019-02-08T04:58:20.480Z,4.20
2019-02-08T05:01:23.952Z,3.93
2019-02-08T05:04:27.403Z,4.40
2019-02-08T05:07:30.879Z,4.57
2019-02-08T05:10:35.324Z,4.23
2019-02-08T05:13:38.785Z,3.90
2019-02-08T05:16:42.193Z,4.60
2019-02-08T05:19:45.637Z,3.63
2019-02-08T05:22:49.058Z,4.40
2019-02-08T05:25:52.655Z,4.20
2019-02-08T05:28:56.092Z,4.57
2019-02-08T05:31:59.558Z,4.10
2019-02-08T05:35:03.311Z,3.47
2019-02-08T05:38:06.838Z,4.10
2019-02-08T05:41:10.269Z,3.77
2019-02-08T05:44:13.821Z,4.20
2019-02-08T05:47:17.233Z,3.97
2019-02-08T05:50:29.734Z,3.93
2019-02-08T05:53:33.173Z,4.50
2019-02-08T05:56:36.652Z,3.97
2019-02-08T05:59:40.071Z,4.10
2019-02-08T06:02:43.566Z,4.27
2019-02-08T06:05:47.203Z,4.50
2019-02-08T06:08:50.683Z,4.20
2019-02-08T06:11:54.089Z,4.97
2019-02-08T06:14:57.561Z,4.13
2019-02-08T06:18:00.985Z,4.53
2019-02-08T06:21:04.591Z,4.70
2019-02-08T06:24:08.028Z,4.60
2019-02-08T06:27:11.461Z,4.27
2019-02-08T06:30:17.717Z,4.90
2019-02-08T06:33:21.189Z,4.83
2019-02-08T06:36:24.601Z,4.80
2019-02-08T06:39:28.035Z,4.57
2019-02-08T06:42:31.602Z,4.90
2019-02-08T06:45:35.137Z,5.30
2019-02-08T06:48:38.608Z,5.40
2019-02-08T06:51:42.025Z,4.77
2019-02-08T06:54:45.496Z,5.33
2019-02-08T06:57:53.222Z,4.80
2019-02-08T07:01:14.351Z,5.00
2019-02-08T07:04:22.385Z,4.83
2019-02-08T07:07:33.430Z,5.00
2019-02-08T07:10:38.490Z,4.87
2019-02-08T07:14:00.143Z,4.67
2019-02-08T07:17:05.250Z,4.53
2019-02-08T07:20:21.377Z,4.37
2019-02-08T07:23:41.573Z,3.93
2019-02-08T07:26:55.680Z,4.47
2019-02-08T07:30:10.040Z,5.10
2019-02-08T07:33:15.092Z,4.23
2019-02-08T07:36:23.284Z,5.60
2019-02-08T07:39:37.297Z,4.27
2019-02-08T07:42:51.665Z,5.13
2019-02-08T07:46:00.072Z,4.97
2019-02-08T07:49:05.568Z,4.73
2019-02-08T07:52:10.789Z,4.80
2019-02-08T07:55:27.748Z,5.03
2019-02-08T07:58:32.840Z,4.67
2019-02-08T08:01:48.092Z,5.17
2019-02-08T08:05:05.177Z,4.13
2019-02-08T08:08:28.294Z,5.00
2019-02-08T08:11:33.381Z,4.73
2019-02-08T08:14:40.088Z,4.80
2019-02-08T08:17:54.440Z,4.50
2019-02-08T08:21:16.042Z,4.87
2019-02-08T08:24:29.884Z,4.43
2019-02-08T08:27:35.405Z,4.60
2019-02-08T08:30:40.944Z,5.30
2019-02-08T08:33:53.262Z,4.77
2019-02-08T08:37:05.709Z,5.00
2019-02-08T08:40:30.052Z,4.73
2019-02-08T08:43:56.972Z,5.07
2019-02-08T08:47:27.752Z,4.77
2019-02-08T08:51:02.975Z,5.47
2019-02-08T08:54:27.688Z,4.70
2019-02-08T08:57:52.217Z,4.80
2019-02-08T09:01:04.928Z,4.93
2019-02-08T09:04:23.409Z,4.80
2019-02-08T09:07:38.926Z,4.37
2019-02-08T09:11:11.657Z,5.10
2019-02-08T09:14:26.421Z,5.13
2019-02-08T09:17:42.056Z,5.03
2019-02-08T09:21:05.824Z,5.37
2019-02-08T09:24:26.725Z,5.00
2019-02-08T09:27:51.358Z,4.73
2019-02-08T09:31:20.677Z,4.97
2019-02-08T09:34:29.717Z,4.63
2019-02-08T09:38:04.989Z,5.13
2019-02-08T09:41:20.284Z,5.47
2019-02-08T09:44:41.922Z,5.40
2019-02-08T09:48:03.381Z,4.77
2019-02-08T09:51:25.179Z,5.33
2019-02-08T09:54:58.560Z,5.37
2019-02-08T09:58:14.106Z,5.27
2019-02-08T10:01:54.085Z,5.70
2019-02-08T10:05:34.291Z,4.90
2019-02-08T10:09:04.344Z,4.23
2019-02-08T10:12:45.772Z,5.20
2019-02-08T10:16:01.304Z,5.10
2019-02-08T10:19:27.921Z,5.03
2019-02-08T10:23:02.725Z,5.20
2019-02-08T10:26:33.622Z,4.83
2019-02-08T10:30:13.709Z,5.23
2019-02-08T10:33:44.560Z,5.00
2019-02-08T10:37:15.187Z,5.57
2019-02-08T10:40:45.856Z,5.50
2019-02-08T10:44:21.096Z,5.50
2019-02-08T10:47:52.068Z,5.57
2019-02-08T10:51:18.284Z,5.10
2019-02-08T10:54:56.659Z,5.50
2019-02-08T10:58:12.701Z,4.43
2019-02-08T11:01:32.115Z,5.40
2019-02-08T11:05:12.400Z,4.00
2019-02-08T11:08:33.761Z,4.90
2019-02-08T11:11:40.244Z,4.60
2019-02-08T11:15:03.169Z,5.00
2019-02-08T11:18:18.636Z,4.33
2019-02-08T11:21:22.151Z,4.73
2019-02-08T11:24:25.683Z,4.63
2019-02-08T11:27:29.140Z,4.70
2019-02-08T11:30:32.636Z,4.70
2019-02-08T11:33:36.081Z,3.83
2019-02-08T11:36:39.852Z,4.03
2019-02-08T11:39:43.364Z,4.53
2019-02-08T11:42:46.793Z,4.40
2019-02-08T11:45:50.240Z,3.70
2019-02-08T11:48:53.744Z,4.97
2019-02-08T11:51:57.338Z,4.67
2019-02-08T11:55:01.002Z,4.37
2019-02-08T11:58:05.135Z,4.37
2019-02-08T12:01:08.976Z,5.40
2019-02-08T12:04:12.689Z,4.37
2019-02-08T12:07:16.230Z,4.10
2019-02-08T12:10:19.900Z,4.50
2019-02-08T12:13:23.482Z,4.27
2019-02-08T12:16:27.152Z,4.33
2019-02-08T12:19:30.651Z,4.27
2019-02-08T12:22:40.149Z,4.80
2019-02-08T12:25:43.936Z,4.07
2019-02-08T12:28:47.606Z,4.27
2019-02-08T12:31:51.092Z,4.47
2019-02-08T12:34:54.663Z,3.70
2019-02-08T12:37:58.394Z,4.30
2019-02-08T12:41:09.415Z,5.13
2019-02-08T12:44:07.350Z,4.10
2019-02-08T12:47:10.803Z,3.80
2019-02-08T12:50:18.558Z,4.37
2019-02-08T12:53:21.989Z,3.37
2019-02-08T12:56:25.436Z,4.60
2019-02-08T12:59:28.863Z,4.40
2019-02-08T13:02:32.316Z,4.50
2019-02-08T13:05:35.818Z,4.73
2019-02-08T13:08:39.319Z,3.90
2019-02-08T13:11:42.752Z,4.50
2019-02-08T13:14:46.164Z,3.77
2019-02-08T13:17:49.624Z,3.90
2019-02-08T13:20:53.860Z,4.00
2019-02-08T13:23:57.317Z,3.83
2019-02-08T13:27:00.764Z,4.00
2019-02-08T13:30:07.269Z,4.37
2019-02-08T13:33:10.701Z,3.53
2019-02-08T13:36:14.545Z,4.00
2019-02-08T13:39:18.001Z,3.37
2019-02-08T13:42:21.457Z,3.10
2019-02-08T13:45:25.403Z,3.20
2019-02-08T13:48:28.829Z,3.73
2019-02-08T13:51:32.331Z,3.63
2019-02-08T13:54:35.784Z,3.40
2019-02-08T13:57:39.229Z,3.10
2019-02-08T14:00:42.682Z,3.60
2019-02-08T14:03:46.152Z,3.20
2019-02-08T14:06:49.604Z,2.97
2019-02-08T14:09:53.012Z,3.13
2019-02-08T14:12:56.444Z,3.47
2019-02-08T14:15:59.897Z,2.90
2019-02-08T14:19:03.342Z,3.40
2019-02-08T14:22:06.749Z,3.33
2019-02-08T14:25:13.042Z,3.40
2019-02-08T14:28:16.469Z,3.27
2019-02-08T14:31:20.868Z,3.17
2019-02-08T14:34:24.273Z,3.23
2019-02-08T14:37:27.744Z,2.67
2019-02-08T14:40:31.318Z,2.80
2019-02-08T14:43:34.775Z,2.97
2019-02-08T14:46:38.224Z,2.97
2019-02-08T14:49:41.627Z,2.47
2019-02-08T14:52:45.191Z,2.80
2019-02-08T14:55:48.619Z,2.63
2019-02-08T14:58:52.064Z,2.60
2019-02-08T15:01:55.510Z,2.70
2019-02-08T15:04:58.944Z,2.80
2019-02-08T15:08:02.411Z,3.03
2019-02-08T15:11:05.826Z,2.83
2019-02-08T15:14:09.262Z,2.90
2019-02-08T15:17:12.680Z,2.77
2019-02-08T15:20:19.446Z,2.90
2019-02-08T15:23:22.859Z,2.77
2019-02-08T15:26:26.317Z,2.70
2019-02-08T15:29:29.720Z,2.60
2019-02-08T15:32:33.229Z,3.23
2019-02-08T15:35:36.735Z,2.83
2019-02-08T15:38:40.225Z,3.33
2019-02-08T15:41:43.680Z,3.00
2019-02-08T15:44:47.085Z,3.20
2019-02-08T15:47:50.601Z,3.00
2019-02-08T15:50:54.204Z,2.70
2019-02-08T15:53:57.686Z,2.63
2019-02-08T15:57:02.782Z,3.57
2019-02-08T16:00:09.222Z,3.33
2019-02-08T16:03:12.789Z,3.73
2019-02-08T16:06:16.205Z,3.27
2019-02-08T16:09:19.656Z,4.13
2019-02-08T16:12:23.110Z,2.93
2019-02-08T16:15:29.183Z,3.20
2019-02-08T16:18:32.615Z,3.10
2019-02-08T16:21:36.098Z,2.70
2019-02-08T16:24:39.561Z,2.53
2019-02-08T16:27:43.003Z,2.60
2019-02-08T16:30:46.442Z,3.37
2019-02-08T16:33:49.872Z,2.60
2019-02-08T16:36:53.305Z,3.10
2019-02-08T16:39:56.732Z,2.80
2019-02-08T16:43:00.164Z,2.80
2019-02-08T16:46:03.865Z,2.83
2019-02-08T16:49:07.301Z,2.90
2019-02-08T16:52:10.793Z,3.17
2019-02-08T16:55:14.898Z,2.70
2019-02-08T16:58:18.300Z,3.00
2019-02-08T17:01:21.749Z,2.83
2019-02-08T17:04:25.171Z,2.80
2019-02-08T17:07:28.616Z,2.80
2019-02-08T17:10:32.142Z,2.73
2019-02-08T17:13:35.559Z,2.73
2019-02-08T17:16:39.001Z,2.83
2019-02-08T17:19:42.504Z,3.20
2019-02-08T17:22:45.958Z,2.90
2019-02-08T17:25:49.363Z,2.97
2019-02-08T17:28:52.820Z,2.80
2019-02-08T17:31:56.268Z,2.80
2019-02-08T17:34:59.697Z,2.73
2019-02-08T17:38:03.113Z,2.80
2019-02-08T17:41:06.700Z,2.87
2019-02-08T17:44:10.158Z,3.40
2019-02-08T17:47:13.564Z,3.90
2019-02-08T17:50:25.189Z,3.33
2019-02-08T17:53:28.632Z,2.73
2019-02-08T17:56:32.080Z,2.90
2019-02-08T17:59:35.508Z,2.93
2019-02-08T18:02:39.053Z,2.90
2019-02-08T18:05:42.508Z,3.10
2019-02-08T18:08:45.953Z,2.67
2019-02-08T18:11:49.376Z,3.30
2019-02-08T18:14:52.873Z,3.03
2019-02-08T18:17:56.386Z,2.70
2019-02-08T18:21:00.750Z,3.03
2019-02-08T18:24:04.211Z,3.50
2019-02-08T18:27:07.676Z,3.20
2019-02-08T18:30:20.314Z,2.73
2019-02-08T18:33:23.762Z,2.83
2019-02-08T18:36:27.220Z,3.20
2019-02-08T18:39:30.692Z,2.50
2019-02-08T18:42:34.101Z,3.00
2019-02-08T18:45:38.004Z,2.70
2019-02-08T18:48:41.461Z,2.67
2019-02-08T18:51:44.876Z,2.80
2019-02-08T18:54:48.336Z,2.40
2019-02-08T18:57:51.758Z,2.87
2019-02-08T19:00:55.464Z,2.33
2019-02-08T19:03:58.888Z,2.60
2019-02-08T19:07:02.332Z,3.30
2019-02-08T19:10:14.228Z,2.90
2019-02-08T19:13:17.706Z,2.90
2019-02-08T19:16:21.188Z,2.90
2019-02-08T19:19:24.592Z,2.70
2019-02-08T19:22:28.055Z,2.83
2019-02-08T19:25:39.502Z,3.50
2019-02-08T19:28:42.947Z,2.60
2019-02-08T19:31:46.372Z,2.63
2019-02-08T19:34:49.821Z,2.83
2019-02-08T19:37:53.301Z,2.97
2019-02-08T19:40:56.766Z,3.00
2019-02-08T19:44:00.255Z,3.00
2019-02-08T19:47:03.712Z,3.07
2019-02-08T19:50:13.160Z,3.10
2019-02-08T19:53:16.611Z,2.93
2019-02-08T19:56:20.089Z,5.63
2019-02-08T19:59:23.543Z,3.00
2019-02-08T20:02:26.985Z,2.93
2019-02-08T20:05:30.408Z,2.77
2019-02-08T20:08:33.862Z,3.00
2019-02-08T20:11:37.330Z,2.97
2019-02-08T20:14:40.756Z,2.90
2019-02-08T20:17:44.288Z,3.50
2019-02-08T20:20:47.894Z,2.70
2019-02-08T20:23:51.353Z,2.23
2019-02-08T20:26:54.776Z,2.20
2019-02-08T20:29:58.292Z,2.50
2019-02-08T20:33:02.071Z,2.87
2019-02-08T20:36:05.500Z,2.63
2019-02-08T20:39:09.462Z,2.80
2019-02-08T20:42:12.978Z,2.57
2019-02-08T20:45:19.039Z,2.60
2019-02-08T20:48:22.849Z,2.60
2019-02-08T20:51:26.304Z,2.60
2019-02-08T20:54:29.735Z,2.27
2019-02-08T20:57:33.239Z,2.60
2019-02-08T21:00:42.908Z,2.70
2019-02-08T21:03:46.349Z,2.40
2019-02-08T21:06:49.789Z,2.53
2019-02-08T21:09:53.224Z,2.80
2019-02-08T21:12:56.670Z,2.53
2019-02-08T21:16:00.105Z,2.40
2019-02-08T21:19:03.542Z,2.50
2019-02-08T21:22:06.969Z,2.40
2019-02-08T21:25:21.664Z,3.00
2019-02-08T21:28:25.107Z,2.30
2019-02-08T21:31:28.545Z,2.80
2019-02-08T21:34:31.986Z,3.10
2019-02-08T21:37:35.496Z,2.40
2019-02-08T21:40:39.314Z,2.43
2019-02-08T21:43:42.742Z,3.03
2019-02-08T21:46:46.156Z,1.97
2019-02-08T21:49:49.629Z,2.43
2019-02-08T21:52:53.296Z,2.70
2019-02-08T21:55:56.727Z,2.33
2019-02-08T21:59:05.952Z,2.23
2019-02-08T22:02:05.473Z,2.40
2019-02-08T22:05:10.361Z,2.27
2019-02-08T22:08:13.804Z,2.20
2019-02-08T22:11:17.238Z,2.13
2019-02-08T22:14:20.649Z,2.07
2019-02-08T22:17:24.113Z,2.03
2019-02-08T22:20:27.677Z,2.23
2019-02-08T22:23:31.100Z,2.60
2019-02-08T22:26:34.528Z,2.33
2019-02-08T22:29:37.949Z,2.10
2019-02-08T22:32:41.404Z,2.27
2019-02-08T22:35:44.856Z,2.00
2019-02-08T22:38:48.333Z,2.33
2019-02-08T22:41:51.820Z,2.50
2019-02-08T22:44:56.212Z,2.07
2019-02-08T22:47:59.711Z,2.07
2019-02-08T22:51:03.175Z,2.27
2019-02-08T22:54:06.674Z,2.33
2019-02-08T22:57:10.115Z,2.00
2019-02-08T23:00:31.957Z,2.27
2019-02-08T23:03:35.534Z,2.10
2019-02-08T23:06:44.618Z,2.00
2019-02-08T23:09:44.211Z,2.00
2019-02-08T23:12:47.665Z,2.13
2019-02-08T23:15:51.101Z,2.10
2019-02-08T23:18:54.547Z,2.23
2019-02-08T23:21:57.999Z,2.13
2019-02-08T23:25:01.701Z,1.93
2019-02-08T23:28:05.595Z,2.27
2019-02-08T23:31:09.049Z,2.23
2019-02-08T23:34:12.524Z,2.00
2019-02-08T23:37:15.956Z,2.30
2019-02-08T23:40:20.244Z,2.30
2019-02-08T23:43:23.660Z,2.23
2019-02-08T23:46:27.072Z,2.37
2019-02-08T23:49:30.527Z,2.50
2019-02-08T23:52:33.973Z,2.13
2019-02-08T23:55:37.400Z,1.80
2019-02-08T23:58:40.840Z,2.23
